Time;durP1;ratioP1;P1;durP2;ratioP2;P2;SDS_P1;SDS_P2;PMS_P1;PMS_P2;Temp;Humidity;BMP_temperature;BMP_pressure;BME280_temperature;BME280_humidity;BME280_pressure;Samples;Min_cycle;Max_cycle;Signal;HPM_P1;HPM_P2
2022/12/07 00:01:12;;;;;;;;;65.00;49.75;;;;;4.65;78.74;101563.41;5077182;28;45299;-59
2022/12/07 00:03:39;;;;;;;;;73.00;52.00;;;;;4.50;78.91;101544.34;5077796;28;45364;-61
2022/12/07 00:06:06;;;;;;;;;65.00;50.00;;;;;4.47;78.56;101558.44;5090926;27;46895;-61
2022/12/07 00:08:32;;;;;;;;;59.25;49.25;;;;;4.44;79.59;101556.72;5098421;27;45255;-61
2022/12/07 00:11:06;;;;;;;;;65.50;53.00;;;;;4.49;78.94;101553.13;5098327;27;45465;-60
2022/12/07 00:13:34;;;;;;;;;67.75;50.00;;;;;4.47;78.60;101544.41;5097085;27;45248;-60
2022/12/07 00:16:12;;;;;;;;;66.75;52.25;;;;;4.41;79.95;101555.88;5071728;27;47903;-61
2022/12/07 00:18:38;;;;;;;;;56.00;44.75;;;;;4.43;78.65;101556.75;5058884;28;45531;-68
2022/12/07 00:21:15;;;;;;;;;50.75;46.75;;;;;4.44;78.85;101546.19;5084975;27;45499;-60
2022/12/07 00:23:43;;;;;;;;;69.50;53.00;;;;;4.40;80.11;101548.88;5075288;27;45462;-61
2022/12/07 00:26:13;;;;;;;;;70.25;52.00;;;;;4.36;79.14;101541.91;5089227;27;45710;-60
2022/12/07 00:28:39;;;;;;;;;63.50;48.75;;;;;4.40;79.07;101538.34;5096191;27;45359;-59
2022/12/07 00:31:07;;;;;;;;;69.00;47.00;;;;;4.43;79.70;101544.44;5095897;27;45294;-60
2022/12/07 00:33:34;;;;;;;;;62.50;51.25;;;;;4.47;78.52;101537.34;5079442;27;45729;-60
2022/12/07 00:36:00;;;;;;;;;64.00;50.50;;;;;4.53;78.67;101544.28;5093262;27;45468;-60
2022/12/07 00:38:31;;;;;;;;;61.25;51.50;;;;;4.58;78.17;101538.06;5078487;27;45457;-61
2022/12/07 00:41:02;;;;;;;;;64.25;47.75;;;;;4.51;78.13;101543.44;5095553;27;45337;-60
2022/12/07 00:43:28;;;;;;;;;62.50;47.25;;;;;4.52;79.15;101537.28;5096987;27;45447;-60
2022/12/07 00:45:54;;;;;;;;;62.25;52.50;;;;;4.54;78.54;101530.22;5061325;27;46488;-60
2022/12/07 00:48:21;;;;;;;;;68.25;51.75;;;;;4.62;77.84;101537.09;5095995;27;46010;-60
2022/12/07 00:50:46;;;;;;;;;62.75;53.50;;;;;4.66;78.53;101528.25;5082729;27;45436;-60
2022/12/07 00:53:12;;;;;;;;;59.00;51.50;;;;;4.71;77.34;101533.47;5076920;28;45287;-61
2022/12/07 00:55:38;;;;;;;;;62.75;49.75;;;;;4.73;77.46;101537.81;5067542;27;46402;-60
2022/12/07 00:58:04;;;;;;;;;60.75;49.75;;;;;4.65;77.59;101523.88;5095877;27;45382;-60
2022/12/07 01:00:30;;;;;;;;;69.50;52.00;;;;;4.68;78.31;101539.63;5096692;27;45234;-63
2022/12/07 01:02:55;;;;;;;;;55.75;47.00;;;;;4.65;78.21;101533.53;5096795;27;45655;-60
2022/12/07 01:05:20;;;;;;;;;65.50;52.00;;;;;4.53;78.38;101518.81;5085402;27;46039;-61
2022/12/07 01:07:46;;;;;;;;;65.00;49.25;;;;;4.63;78.72;101520.41;5076470;27;45275;-61
2022/12/07 01:10:12;;;;;;;;;69.25;51.00;;;;;4.71;78.72;101530.81;5076629;28;45582;-61
2022/12/07 01:12:38;;;;;;;;;61.75;50.25;;;;;4.67;78.05;101524.72;5070327;27;45477;-60
2022/12/07 01:15:04;;;;;;;;;79.00;54.25;;;;;4.71;78.29;101523.78;5075537;27;45580;-61
2022/12/07 01:17:30;;;;;;;;;64.25;50.75;;;;;4.72;77.78;101529.94;5075771;27;45484;-61
2022/12/07 01:19:55;;;;;;;;;68.50;54.25;;;;;4.67;77.07;101518.56;5074759;28;45417;-61
2022/12/07 01:22:20;;;;;;;;;63.25;51.50;;;;;4.64;78.06;101516.88;5090124;27;45260;-61
2022/12/07 01:24:47;;;;;;;;;67.50;53.25;;;;;4.65;77.39;101525.63;5095318;27;45401;-60
2022/12/07 01:27:13;;;;;;;;;63.75;49.00;;;;;4.53;78.55;101528.47;5098876;27;45239;-61
2022/12/07 01:29:38;;;;;;;;;64.00;50.75;;;;;4.52;78.34;101521.47;5082067;27;45250;-60
2022/12/07 01:32:04;;;;;;;;;59.50;48.50;;;;;4.39;77.79;101510.25;5100241;27;45493;-60
2022/12/07 01:34:29;;;;;;;;;73.50;51.00;;;;;4.45;77.86;101515.44;5100024;27;46107;-59
2022/12/07 01:36:54;;;;;;;;;63.25;50.00;;;;;4.49;77.46;101511.84;5100056;27;45339;-61
2022/12/07 01:39:20;;;;;;;;;65.50;51.00;;;;;4.48;77.64;101520.66;5100034;27;45252;-60
2022/12/07 01:41:45;;;;;;;;;56.75;50.50;;;;;4.43;78.34;101522.50;5086737;27;45451;-60
2022/12/07 01:44:17;;;;;;;;;68.75;55.00;;;;;4.34;77.65;101514.75;5079258;27;45599;-62
2022/12/07 01:46:46;;;;;;;;;48.00;46.00;;;;;4.41;77.19;101529.53;5099790;27;45390;-60
2022/12/07 01:49:42;;;;;;;;;69.00;50.50;;;;;4.39;76.42;101510.25;5099691;27;45265;-59
2022/12/07 01:52:20;;;;;;;;;70.50;56.00;;;;;4.19;77.26;101507.09;5094443;27;45499;-60
2022/12/07 01:54:47;;;;;;;;;69.75;52.75;;;;;4.09;77.88;101516.88;5081630;27;46903;-60
2022/12/07 01:57:15;;;;;;;;;64.75;48.75;;;;;3.99;78.17;101510.00;5100069;27;45345;-62
2022/12/07 01:59:43;;;;;;;;;57.50;47.75;;;;;3.93;77.89;101500.44;5061880;27;45302;-60
2022/12/07 02:02:18;;;;;;;;;66.25;45.25;;;;;3.99;77.82;101515.25;5079857;28;45365;-61
2022/12/07 02:04:45;;;;;;;;;54.25;46.75;;;;;3.99;78.02;101502.97;5079392;27;45452;-60
2022/12/07 02:07:10;;;;;;;;;56.25;44.75;;;;;3.78;77.69;101485.75;5078741;28;45471;-60
2022/12/07 02:09:35;;;;;;;;;61.50;48.00;;;;;3.85;78.06;101505.78;5084495;27;45453;-61
2022/12/07 02:12:02;;;;;;;;;53.00;44.75;;;;;3.70;78.08;101498.13;5099433;27;45328;-61
2022/12/07 02:14:27;;;;;;;;;55.00;43.50;;;;;3.77;78.55;101517.31;5096674;27;46167;-61
2022/12/07 02:17:11;;;;;;;;;53.50;46.00;;;;;3.74;78.56;101512.09;5078417;28;45343;-61
2022/12/07 02:20:10;;;;;;;;;44.00;40.75;;;;;3.62;79.15;101510.50;5060669;27;45356;-61
2022/12/07 02:22:51;;;;;;;;;47.75;43.25;;;;;3.51;80.21;101513.25;5095105;27;46132;-61
2022/12/07 02:25:35;;;;;;;;;61.75;43.00;;;;;3.50;80.20;101522.03;5097610;27;46781;-60
2022/12/07 02:28:18;;;;;;;;;55.50;41.00;;;;;3.53;79.83;101510.63;5098872;27;45472;-61
2022/12/07 02:30:48;;;;;;;;;32.25;32.25;;;;;3.55;79.30;101514.09;5079098;27;45474;-62
2022/12/07 02:33:24;;;;;;;;;55.50;46.50;;;;;3.56;79.65;101510.59;5077025;27;45275;-63
2022/12/07 02:36:01;;;;;;;;;47.75;42.25;;;;;3.56;79.70;101505.31;5072323;28;46792;-61
2022/12/07 02:38:37;;;;;;;;;46.50;38.25;;;;;3.54;79.66;101507.97;5061117;27;45663;-61
2022/12/07 02:41:36;;;;;;;;;58.00;44.25;;;;;3.54;80.02;101501.84;5109894;27;45523;-60
2022/12/07 02:44:07;;;;;;;;;52.50;44.25;;;;;3.49;80.42;101514.16;5081341;27;45411;-61
2022/12/07 02:46:40;;;;;;;;;44.25;36.00;;;;;3.45;80.80;101518.59;5095490;27;46366;-60
2022/12/07 02:49:07;;;;;;;;;43.50;31.50;;;;;3.45;80.75;101515.09;5078311;27;45337;-60
2022/12/07 02:51:33;;;;;;;;;47.50;41.75;;;;;3.42;80.51;101502.84;5079929;27;45351;-61
2022/12/07 02:54:00;;;;;;;;;28.25;25.50;;;;;3.41;80.67;101506.38;5098411;27;45594;-60
2022/12/07 02:56:44;;;;;;;;;45.75;40.25;;;;;3.43;80.20;101501.97;5098245;27;46649;-60
2022/12/07 02:59:47;;;;;;;;;38.25;34.00;;;;;3.47;80.07;101505.44;5092106;27;45594;-59
2022/12/07 03:02:28;;;;;;;;;48.25;38.50;;;;;3.49;79.78;101498.38;5078431;28;45437;-61
2022/12/07 03:05:15;;;;;;;;;46.50;38.00;;;;;3.48;80.03;101497.50;5077874;28;45378;-60
2022/12/07 03:08:15;;;;;;;;;43.00;37.25;;;;;3.47;80.16;101495.78;5091967;27;45390;-60
2022/12/07 03:10:47;;;;;;;;;40.25;32.25;;;;;3.43;80.19;101490.59;5096786;27;45322;-59
2022/12/07 03:13:52;;;;;;;;;45.00;40.00;;;;;3.45;79.85;101492.28;5098311;27;45405;-59
2022/12/07 03:16:22;;;;;;;;;42.25;39.00;;;;;3.46;80.47;101491.41;5087360;27;45466;-60
2022/12/07 03:19:05;;;;;;;;;41.75;30.75;;;;;3.45;80.04;101484.41;5097860;27;45316;-60
2022/12/07 03:21:39;;;;;;;;;42.25;40.00;;;;;3.42;80.20;101484.47;5097832;27;45845;-59
2022/12/07 03:24:11;;;;;;;;;35.25;32.00;;;;;3.44;80.41;101493.19;5094173;27;45297;-60
2022/12/07 03:26:42;;;;;;;;;33.75;31.50;;;;;3.40;80.57;101494.13;5097943;27;45540;-60
2022/12/07 03:29:22;;;;;;;;;41.75;29.75;;;;;3.32;80.66;101485.44;5098827;27;47082;-61
2022/12/07 03:31:56;;;;;;;;;48.50;35.25;;;;;3.33;80.44;101476.66;5078778;28;45410;-59
2022/12/07 03:34:41;;;;;;;;;30.00;26.25;;;;;3.31;80.58;101480.22;5077811;28;45216;-59
2022/12/07 03:37:26;;;;;;;;;36.00;29.25;;;;;3.25;80.60;101468.91;5077140;27;45497;-61
2022/12/07 03:40:04;;;;;;;;;48.25;32.75;;;;;3.32;80.36;101471.44;5078086;27;45442;-60
2022/12/07 03:42:32;;;;;;;;;36.25;32.25;;;;;3.17;80.51;101454.97;5077643;27;45295;-61
2022/12/07 03:44:58;;;;;;;;;41.00;32.50;;;;;3.21;81.01;101466.31;5099936;27;45173;-62
2022/12/07 03:47:33;;;;;;;;;33.00;29.25;;;;;3.13;80.74;101465.53;5101608;27;45173;-61
2022/12/07 03:50:06;;;;;;;;;56.75;38.75;;;;;3.17;80.84;101475.13;5097261;27;45505;-60
2022/12/07 03:52:42;;;;;;;;;38.75;35.50;;;;;3.14;81.19;101475.16;5098782;27;45310;-61
2022/12/07 03:55:18;;;;;;;;;45.25;38.75;;;;;3.13;81.64;101473.41;5098223;27;45236;-60
2022/12/07 03:57:48;;;;;;;;;35.00;30.75;;;;;2.98;82.59;101471.81;5078844;27;45239;-60
2022/12/07 04:00:14;;;;;;;;;39.00;32.25;;;;;3.05;81.73;101480.50;5079944;27;46267;-61
2022/12/07 04:02:41;;;;;;;;;38.25;35.75;;;;;3.02;81.88;101455.16;5076979;28;45400;-65
2022/12/07 04:05:07;;;;;;;;;45.25;39.50;;;;;3.14;81.78;101462.88;5058587;27;45358;-60
2022/12/07 04:07:33;;;;;;;;;41.75;37.75;;;;;3.11;81.80;101454.16;5077044;28;45469;-60
2022/12/07 04:09:58;;;;;;;;;41.75;41.75;;;;;3.10;81.76;101452.41;5076648;28;45918;-60
2022/12/07 04:12:24;;;;;;;;;46.25;41.50;;;;;3.08;81.87;101457.69;5077007;28;45196;-59
2022/12/07 04:14:49;;;;;;;;;50.25;40.75;;;;;3.08;81.63;101454.19;5079474;27;45500;-61
2022/12/07 04:17:15;;;;;;;;;38.00;29.50;;;;;3.06;81.86;101466.47;5076714;28;45579;-61
2022/12/07 04:19:40;;;;;;;;;50.75;39.50;;;;;3.07;82.48;101479.59;5076747;28;45296;-61
2022/12/07 04:22:07;;;;;;;;;37.25;33.75;;;;;3.12;82.40;101477.78;5076782;28;45648;-60
2022/12/07 04:24:32;;;;;;;;;48.75;36.75;;;;;3.12;82.11;101466.41;5093414;27;45354;-60
2022/12/07 04:26:58;;;;;;;;;30.50;28.00;;;;;3.16;81.86;101470.75;5079009;27;45445;-59
2022/12/07 04:29:24;;;;;;;;;36.50;30.75;;;;;3.13;81.73;101462.91;5094809;27;45492;-60
2022/12/07 04:31:50;;;;;;;;;39.50;32.25;;;;;3.18;81.87;101466.34;5082550;27;45346;-60
2022/12/07 04:34:18;;;;;;;;;34.75;34.75;;;;;3.13;81.57;101466.41;5090472;27;45447;-60
2022/12/07 04:36:45;;;;;;;;;36.50;31.75;;;;;3.16;81.80;101462.88;5078408;27;45551;-62
2022/12/07 04:39:20;;;;;;;;;40.75;29.00;;;;;3.25;81.64;101470.63;5095313;27;45471;-59
2022/12/07 04:41:46;;;;;;;;;35.50;31.00;;;;;3.30;81.30;101470.59;5081151;27;45274;-62
2022/12/07 04:44:14;;;;;;;;;35.50;29.25;;;;;3.33;81.06;101468.78;5096620;27;45303;-60
2022/12/07 04:46:40;;;;;;;;;31.75;28.50;;;;;3.40;80.64;101461.69;5096558;27;45338;-60
2022/12/07 04:49:05;;;;;;;;;31.75;27.75;;;;;3.45;80.72;101458.09;5079243;27;45371;-60
2022/12/07 04:51:31;;;;;;;;;30.75;29.75;;;;;3.48;79.71;101460.69;5075634;27;45563;-60
2022/12/07 04:53:57;;;;;;;;;35.75;32.75;;;;;3.47;80.18;101453.69;5076700;28;45376;-58
2022/12/07 04:56:23;;;;;;;;;32.50;31.00;;;;;3.47;80.35;101439.69;5076534;28;45413;-60
2022/12/07 04:58:50;;;;;;;;;37.25;30.50;;;;;3.46;80.36;101454.59;5085673;27;47333;-61
2022/12/07 05:01:17;;;;;;;;;33.75;29.25;;;;;3.54;80.09;101463.25;5098643;27;45332;-61
2022/12/07 05:03:43;;;;;;;;;42.25;35.00;;;;;3.43;80.50;101465.16;5081880;27;45311;-62
2022/12/07 05:06:09;;;;;;;;;39.50;32.00;;;;;3.29;80.84;101448.69;5098832;27;45559;-61
2022/12/07 05:08:35;;;;;;;;;38.50;28.00;;;;;3.32;80.95;101464.41;5081484;27;45480;-62
2022/12/07 05:11:02;;;;;;;;;35.00;29.00;;;;;3.35;80.98;101464.38;5079868;27;45541;-59
2022/12/07 05:13:28;;;;;;;;;38.25;30.75;;;;;3.26;80.81;101461.88;5100161;27;45396;-61
2022/12/07 05:15:53;;;;;;;;;38.75;31.00;;;;;3.30;81.01;101458.31;5100310;27;45393;-61
2022/12/07 05:18:18;;;;;;;;;42.25;38.00;;;;;3.34;80.81;101467.88;5097582;27;46174;-61
2022/12/07 05:20:44;;;;;;;;;40.50;32.75;;;;;3.35;80.46;101467.00;5081240;27;45200;-60
2022/12/07 05:23:10;;;;;;;;;37.75;33.00;;;;;3.39;80.00;101449.44;5075895;27;45520;-58
2022/12/07 05:25:36;;;;;;;;;38.50;32.00;;;;;3.46;80.11;101456.34;5100763;27;45229;-59
2022/12/07 05:28:01;;;;;;;;;33.50;29.75;;;;;3.48;79.93;101468.59;5100280;27;46038;-58
2022/12/07 05:30:29;;;;;;;;;38.50;33.75;;;;;3.54;79.58;101470.28;5083923;27;45354;-59
2022/12/07 05:32:54;;;;;;;;;44.50;34.00;;;;;3.58;79.04;101460.59;5101393;27;45482;-61
2022/12/07 05:35:20;;;;;;;;;32.00;29.00;;;;;3.61;79.15;101460.53;5100736;27;45934;-61
2022/12/07 05:37:45;;;;;;;;;39.00;32.75;;;;;3.59;79.35;101467.59;5096597;27;45471;-61
2022/12/07 05:40:13;;;;;;;;;31.50;26.25;;;;;3.61;79.71;101460.53;5098426;27;45483;-61
2022/12/07 05:42:39;;;;;;;;;35.50;31.25;;;;;3.64;79.37;101460.47;5099994;27;45307;-60
2022/12/07 05:45:06;;;;;;;;;36.25;33.75;;;;;3.68;79.66;101468.34;5088934;27;45440;-61
2022/12/07 05:47:31;;;;;;;;;37.50;29.50;;;;;3.70;79.25;101465.69;5081206;27;45427;-59
2022/12/07 05:49:56;;;;;;;;;37.00;28.50;;;;;3.65;79.52;101457.00;5099773;27;45319;-60
2022/12/07 05:52:22;;;;;;;;;47.50;33.00;;;;;3.74;78.72;101467.38;5098418;27;45277;-60
2022/12/07 05:54:47;;;;;;;;;38.50;33.50;;;;;3.78;79.49;101467.31;5099540;27;45607;-61
2022/12/07 05:57:13;;;;;;;;;41.75;34.00;;;;;3.84;79.64;101461.09;5098341;27;45451;-62
2022/12/07 05:59:38;;;;;;;;;35.75;32.50;;;;;3.86;78.73;101459.31;5098977;27;45446;-60
2022/12/07 06:02:08;;;;;;;;;34.25;31.50;;;;;3.88;78.96;101461.91;5082333;27;45457;-61
2022/12/07 06:04:37;;;;;;;;;34.00;20.25;;;;;3.89;78.61;101463.63;5096358;27;45275;-61
2022/12/07 06:07:04;;;;;;;;;44.25;34.00;;;;;3.82;78.77;101442.69;5098881;27;48123;-61
2022/12/07 06:09:29;;;;;;;;;42.00;30.75;;;;;3.93;78.77;101453.06;5099737;27;45338;-60
2022/12/07 06:14:40;;;;;;;;;42.50;31.75;;;;;4.01;78.52;101456.44;5075579;27;45468;-60
2022/12/07 06:17:06;;;;;;;;;30.25;27.00;;;;;4.03;78.52;101459.91;5098966;27;45409;-60
2022/12/07 06:19:31;;;;;;;;;32.75;26.25;;;;;4.04;78.03;101464.31;5099049;27;45370;-60
2022/12/07 06:21:57;;;;;;;;;27.50;25.50;;;;;4.06;77.61;101459.03;5099005;27;45340;-61
2022/12/07 06:24:23;;;;;;;;;30.25;26.00;;;;;4.08;78.14;101452.81;5098600;27;45525;-61
2022/12/07 06:26:48;;;;;;;;;36.25;28.75;;;;;4.11;77.76;101457.16;5097108;27;45320;-60
2022/12/07 06:29:15;;;;;;;;;33.25;26.50;;;;;4.05;77.89;101450.25;5097981;27;45524;-62
2022/12/07 06:31:40;;;;;;;;;27.25;26.50;;;;;4.18;77.58;101463.22;5079332;27;45361;-61
2022/12/07 06:34:10;;;;;;;;;31.00;28.25;;;;;4.20;77.66;101448.25;5077986;27;45581;-64
2022/12/07 06:36:36;;;;;;;;;27.25;20.25;;;;;4.17;77.65;101445.66;5098110;27;46947;-61
2022/12/07 06:39:01;;;;;;;;;31.00;27.25;;;;;4.28;77.48;101462.16;5098159;27;45405;-61
2022/12/07 06:41:27;;;;;;;;;24.75;23.00;;;;;4.27;77.61;101457.78;5102407;27;45430;-62
2022/12/07 06:43:52;;;;;;;;;26.75;24.00;;;;;4.27;77.23;101461.28;5084836;27;45468;-62
2022/12/07 06:46:18;;;;;;;;;32.75;25.50;;;;;4.27;77.02;101458.66;5098743;27;46083;-62
2022/12/07 06:48:43;;;;;;;;;32.00;23.75;;;;;4.42;77.07;101466.28;5098913;27;45762;-62
2022/12/07 06:51:09;;;;;;;;;34.25;30.00;;;;;4.48;76.70;101467.97;5097556;27;45410;-62
2022/12/07 06:53:36;;;;;;;;;36.75;25.50;;;;;4.51;76.74;101457.38;5091279;27;45334;-60
2022/12/07 06:56:02;;;;;;;;;40.50;27.75;;;;;4.53;76.38;101467.88;5096139;27;45406;-61
2022/12/07 06:58:28;;;;;;;;;31.00;24.25;;;;;4.52;77.18;101466.16;5072369;27;45431;-63
2022/12/07 07:00:53;;;;;;;;;28.00;23.50;;;;;4.48;76.97;101446.03;5080933;27;45534;-67
2022/12/07 07:03:19;;;;;;;;;30.00;25.25;;;;;4.53;77.25;101439.78;5076411;27;45398;-65
2022/12/07 07:05:45;;;;;;;;;35.00;29.50;;;;;4.62;77.31;101460.69;5075199;27;46183;-65
2022/12/07 07:08:11;;;;;;;;;30.00;24.75;;;;;4.57;76.88;101448.53;5097712;27;45366;-61
2022/12/07 07:10:36;;;;;;;;;31.50;25.25;;;;;4.64;77.33;101458.91;5097638;27;45492;-61
2022/12/07 07:13:02;;;;;;;;;28.50;23.00;;;;;4.65;76.89;101460.63;5095449;27;45487;-60
2022/12/07 07:15:28;;;;;;;;;24.75;20.50;;;;;4.67;76.73;101465.88;5096731;27;46407;-59
2022/12/07 07:17:53;;;;;;;;;36.25;29.75;;;;;4.65;77.53;101452.75;5098072;27;45351;-58
2022/12/07 07:20:19;;;;;;;;;33.25;27.00;;;;;4.68;78.04;101457.94;5095774;27;45413;-60
2022/12/07 07:22:44;;;;;;;;;28.75;27.75;;;;;4.64;77.29;101445.72;5087405;27;46764;-59
2022/12/07 07:25:10;;;;;;;;;31.75;29.50;;;;;4.76;77.34;101467.50;5095734;27;46234;-60
2022/12/07 07:27:35;;;;;;;;;27.75;23.50;;;;;4.80;77.23;101466.53;5087754;27;45382;-60
2022/12/07 07:30:01;;;;;;;;;33.25;29.50;;;;;4.83;76.78;101458.59;5089612;27;45506;-58
2022/12/07 07:32:26;;;;;;;;;32.50;24.25;;;;;4.88;77.42;101456.72;5092649;27;45442;-59
2022/12/07 07:34:52;;;;;;;;;31.25;27.25;;;;;4.93;76.51;101461.00;5090147;27;45587;-58
2022/12/07 07:37:17;;;;;;;;;29.50;29.00;;;;;4.94;76.02;101469.78;5088381;27;46495;-60
2022/12/07 07:39:42;;;;;;;;;29.25;29.25;;;;;4.95;76.18;101471.53;5076665;27;45343;-59
2022/12/07 07:42:08;;;;;;;;;30.75;25.00;;;;;4.89;76.15;101466.38;5077179;28;45568;-59
2022/12/07 07:44:34;;;;;;;;;38.25;26.00;;;;;4.89;76.71;101456.69;5058886;28;45375;-59
2022/12/07 07:46:59;;;;;;;;;32.25;27.00;;;;;4.92;76.26;101458.41;5079697;27;45355;-59
2022/12/07 07:49:25;;;;;;;;;31.25;24.25;;;;;5.00;76.23;101459.13;5083747;27;45447;-59
2022/12/07 07:51:51;;;;;;;;;38.75;31.25;;;;;5.10;76.35;101458.06;5078289;27;45369;-60
2022/12/07 07:54:16;;;;;;;;;36.50;32.25;;;;;4.98;75.24;101443.34;5095429;27;46155;-60
2022/12/07 07:56:41;;;;;;;;;33.25;26.50;;;;;4.93;76.52;101465.41;5064816;27;45486;-60
2022/12/07 07:59:10;;;;;;;;;32.25;26.75;;;;;4.87;76.60;101470.81;5090560;27;45469;-57
2022/12/07 08:01:35;;;;;;;;;29.50;27.50;;;;;4.93;77.04;101468.03;5077318;27;45192;-61
2022/12/07 08:04:01;;;;;;;;;35.00;31.00;;;;;4.88;76.77;101467.25;5066816;27;45968;-58
2022/12/07 08:06:26;;;;;;;;;40.00;35.50;;;;;4.81;76.60;101470.91;5090189;27;45276;-59
2022/12/07 08:08:52;;;;;;;;;33.00;32.00;;;;;4.86;75.99;101479.59;5077135;27;45564;-60
2022/12/07 08:11:18;;;;;;;;;30.00;27.75;;;;;4.89;76.78;101474.28;5096502;27;45461;-59
2022/12/07 08:13:46;;;;;;;;;33.25;25.25;;;;;5.01;76.40;101484.59;5097070;27;45729;-59
2022/12/07 08:16:12;;;;;;;;;38.00;29.25;;;;;4.95;75.88;101475.03;5078670;27;45473;-60
2022/12/07 08:18:39;;;;;;;;;42.25;33.00;;;;;4.94;76.54;101481.19;5095792;27;45359;-59
2022/12/07 08:21:06;;;;;;;;;39.75;30.00;;;;;5.03;75.83;101483.66;5078136;27;45445;-59
2022/12/07 08:23:33;;;;;;;;;39.50;30.50;;;;;5.02;75.86;101478.41;5090428;27;45553;-61
2022/12/07 08:26:04;;;;;;;;;33.75;27.25;;;;;5.01;75.99;101480.19;5092956;27;47066;-60
2022/12/07 08:28:30;;;;;;;;;37.75;29.00;;;;;5.09;76.13;101493.25;5094466;27;45409;-58
2022/12/07 08:31:12;;;;;;;;;42.50;32.75;;;;;5.02;75.36;101492.47;5076929;27;45681;-59
2022/12/07 08:33:38;;;;;;;;;34.25;30.75;;;;;4.99;75.92;101482.00;5097059;27;46428;-59
2022/12/07 08:36:06;;;;;;;;;33.25;27.00;;;;;5.14;75.38;101495.78;5095997;27;45445;-59
2022/12/07 08:38:34;;;;;;;;;4.00;1.25;;;;;5.15;75.54;101486.97;5096661;27;45370;-59
2022/12/07 08:41:00;;;;;;;;;26.75;25.50;;;;;5.18;75.38;101498.31;5087042;27;45872;-61
2022/12/07 08:43:25;;;;;;;;;38.75;30.00;;;;;5.25;75.41;101488.53;5096807;27;45874;-59
2022/12/07 08:46:06;;;;;;;;;38.25;32.25;;;;;5.25;75.03;101497.31;5067452;28;45370;-61
2022/12/07 08:48:34;;;;;;;;;37.50;33.75;;;;;5.15;75.54;101493.09;5076278;27;45277;-64
2022/12/07 08:51:02;;;;;;;;;34.75;24.50;;;;;5.04;75.34;101481.88;5095202;27;45592;-62
2022/12/07 08:53:28;;;;;;;;;35.75;32.50;;;;;4.94;75.57;101488.22;5078209;27;45593;-61
2022/12/07 08:55:53;;;;;;;;;41.00;28.25;;;;;5.02;75.67;101504.78;5109554;27;45243;-60
2022/12/07 08:58:19;;;;;;;;;29.25;25.25;;;;;5.16;75.36;101499.25;5088107;27;45389;-62
2022/12/07 09:00:44;;;;;;;;;37.75;28.00;;;;;5.25;75.70;101492.03;5089042;27;45444;-60
2022/12/07 09:03:09;;;;;;;;;47.00;36.75;;;;;5.34;75.05;101488.34;5078133;27;45368;-61
2022/12/07 09:05:35;;;;;;;;;35.00;28.00;;;;;5.35;75.04;101468.13;5093987;27;45237;-70
2022/12/07 09:08:01;;;;;;;;;41.25;38.25;;;;;5.34;74.86;101477.81;5086865;27;45532;-59
2022/12/07 09:10:29;;;;;;;;;32.75;28.75;;;;;5.29;74.58;101469.09;5098690;27;45468;-60
2022/12/07 09:12:54;;;;;;;;;36.25;33.25;;;;;5.30;74.86;101474.34;5067861;27;45524;-61
2022/12/07 09:15:21;;;;;;;;;34.75;32.50;;;;;5.38;74.84;101475.97;5089871;27;46038;-60
2022/12/07 09:17:46;;;;;;;;;36.50;30.00;;;;;5.43;75.25;101488.13;5072382;27;45551;-61
2022/12/07 09:20:12;;;;;;;;;38.50;35.75;;;;;5.41;74.40;101474.13;5088363;27;45421;-61
2022/12/07 09:22:37;;;;;;;;;41.75;33.25;;;;;5.48;74.43;101481.03;5096275;27;45485;-59
2022/12/07 09:25:04;;;;;;;;;44.50;35.50;;;;;5.57;74.86;101495.78;5090247;27;45469;-61
2022/12/07 09:27:30;;;;;;;;;39.50;34.25;;;;;5.64;74.35;101489.47;5085174;27;45644;-61
2022/12/07 09:29:55;;;;;;;;;46.25;36.75;;;;;5.66;74.41;101479.75;5081112;27;45638;-62
2022/12/07 09:32:21;;;;;;;;;31.25;27.00;;;;;5.72;73.84;101490.16;5087651;27;45418;-61
2022/12/07 09:34:47;;;;;;;;;36.50;33.50;;;;;5.74;74.49;101485.75;5090807;27;45524;-62
2022/12/07 09:37:12;;;;;;;;;36.00;34.50;;;;;5.81;74.38;101489.97;5078461;27;45361;-61
2022/12/07 09:39:39;;;;;;;;;41.00;37.00;;;;;5.84;73.87;101484.63;5090188;27;45599;-65
2022/12/07 09:42:07;;;;;;;;;37.75;33.00;;;;;5.87;74.39;101484.56;5068329;27;46143;-60
2022/12/07 09:44:34;;;;;;;;;34.25;31.00;;;;;5.81;74.41;101473.25;5090306;27;45784;-60
2022/12/07 09:47:01;;;;;;;;;33.00;31.75;;;;;5.83;74.60;101482.88;5083660;27;45514;-62
2022/12/07 09:49:30;;;;;;;;;38.75;37.00;;;;;5.84;74.66;101479.34;5095641;27;45417;-62
2022/12/07 09:52:08;;;;;;;;;32.00;29.25;;;;;5.89;74.85;101482.75;5075723;27;45519;-61
2022/12/07 09:54:36;;;;;;;;;35.00;31.25;;;;;5.94;74.84;101477.41;5086430;27;45487;-62
2022/12/07 09:57:03;;;;;;;;;28.75;26.50;;;;;6.00;74.69;101479.03;5097836;27;45458;-59
2022/12/07 09:59:29;;;;;;;;;38.50;33.25;;;;;6.07;74.45;101470.94;5106477;27;45440;-60
2022/12/07 10:01:55;;;;;;;;;34.75;29.75;;;;;6.03;75.16;101460.47;5092839;27;45570;-60
2022/12/07 10:04:25;;;;;;;;;31.75;31.25;;;;;6.14;74.82;101477.81;5095485;27;45556;-60
2022/12/07 10:06:51;;;;;;;;;42.00;35.00;;;;;6.16;74.56;101454.88;5093341;27;45384;-60
2022/12/07 10:09:20;;;;;;;;;47.25;37.50;;;;;6.24;74.60;101452.03;5068429;27;45382;-59
2022/12/07 10:11:58;;;;;;;;;22.50;22.25;;;;;6.39;73.79;101467.53;5085438;27;47636;-61
2022/12/07 10:14:27;;;;;;;;;34.75;31.75;;;;;6.36;74.12;101459.66;5084127;27;45449;-60
2022/12/07 10:16:52;;;;;;;;;45.50;38.25;;;;;6.27;74.42;101456.41;5076473;27;45464;-60
2022/12/07 10:19:24;;;;;;;;;43.00;35.25;;;;;6.44;74.06;101459.47;5059966;27;45738;-61
2022/12/07 10:22:15;;;;;;;;;25.50;21.50;;;;;6.48;73.06;101467.28;5095772;27;45594;-59
2022/12/07 10:24:47;;;;;;;;;42.50;35.00;;;;;6.34;73.04;101458.81;5085177;27;45503;-60
2022/12/07 10:27:21;;;;;;;;;45.75;38.50;;;;;6.19;73.40;101453.94;5083920;27;45367;-60
2022/12/07 10:29:50;;;;;;;;;43.75;35.25;;;;;6.21;74.06;101450.34;5076515;27;45410;-60
2022/12/07 10:32:15;;;;;;;;;45.75;41.50;;;;;6.33;73.98;101459.72;5097883;27;45687;-61
2022/12/07 10:34:41;;;;;;;;;45.00;34.00;;;;;6.30;74.46;101456.31;5095233;27;45424;-59
2022/12/07 10:37:13;;;;;;;;;45.00;39.00;;;;;6.30;74.04;101446.59;5084582;27;45306;-59
2022/12/07 10:39:43;;;;;;;;;36.75;35.25;;;;;6.32;74.24;101443.94;5097274;27;45620;-59
2022/12/07 10:42:20;;;;;;;;;42.75;36.00;;;;;6.36;74.14;101429.72;5098048;27;45417;-61
2022/12/07 10:44:47;;;;;;;;;43.75;35.00;;;;;6.53;73.53;101442.53;5094229;27;45590;-60
2022/12/07 10:47:19;;;;;;;;;45.75;36.25;;;;;6.62;73.62;101436.97;5071699;27;45308;-60
2022/12/07 10:50:13;;;;;;;;;44.00;34.75;;;;;6.71;72.65;101431.47;5075845;27;45394;-59
2022/12/07 10:52:57;;;;;;;;;37.50;34.75;;;;;6.74;72.86;101426.94;5078334;28;45468;-59
2022/12/07 10:55:59;;;;;;;;;44.00;38.00;;;;;6.81;72.23;101414.44;5105754;27;45901;-61
2022/12/07 10:58:36;;;;;;;;;41.75;36.25;;;;;6.85;72.22;101402.00;5122034;27;45424;-60
2022/12/07 11:01:23;;;;;;;;;42.75;40.50;;;;;6.87;72.98;101400.19;5087276;27;45453;-60
2022/12/07 11:04:07;;;;;;;;;51.75;39.00;;;;;6.94;72.59;101399.13;5096999;27;46540;-60
2022/12/07 11:06:44;;;;;;;;;52.75;43.25;;;;;6.89;72.64;101380.72;5099296;27;45500;-58
2022/12/07 11:09:31;;;;;;;;;45.00;38.25;;;;;7.13;72.23;101404.72;5078596;27;45438;-62
2022/12/07 11:12:11;;;;;;;;;48.75;40.75;;;;;7.28;71.86;101375.19;5066251;27;45502;-60
2022/12/07 11:14:51;;;;;;;;;50.00;41.75;;;;;7.50;70.95;101386.84;5096858;27;45525;-59
2022/12/07 11:17:26;;;;;;;;;50.00;43.75;;;;;7.38;71.74;101384.56;5097348;27;45392;-60
2022/12/07 11:20:10;;;;;;;;;55.50;38.50;;;;;7.45;71.96;101375.56;5096555;27;45466;-60
2022/12/07 11:22:41;;;;;;;;;49.75;38.75;;;;;7.55;70.95;101376.13;5098708;27;47136;-60
2022/12/07 11:25:34;;;;;;;;;44.25;33.25;;;;;7.64;71.35;101367.91;5115695;27;45371;-59
2022/12/07 11:28:21;;;;;;;;;47.00;38.75;;;;;7.71;70.88;101363.28;5088414;27;45406;-59
2022/12/07 11:31:04;;;;;;;;;50.50;43.00;;;;;7.52;70.40;101358.56;5077231;28;45322;-59